Time;durP1;ratioP1;P1;durP2;ratioP2;P2;SDS_P1;SDS_P2;PMS_P1;PMS_P2;Temp;Humidity;BMP_temperature;BMP_pressure;BME280_temperature;BME280_humidity;BME280_pressure;Samples;Min_cycle;Max_cycle;Signal;HPM_P1;HPM_P2
2022/08/27 00:05:17;;;;;;;17.48;9.50;;;;;;;15.78;85.07;98594.36;4319069;80;21628;-85
2022/08/27 00:11:21;;;;;;;18.48;9.55;;;;;;;15.67;84.98;98590.39;4318700;80;22102;-85
2022/08/27 00:17:22;;;;;;;17.50;9.45;;;;;;;15.57;85.42;98589.36;4343141;80;21064;-85
2022/08/27 00:23:24;;;;;;;26.48;9.58;;;;;;;15.52;86.48;98593.17;4334689;80;21023;-85
2022/08/27 00:29:26;;;;;;;14.95;8.83;;;;;;;15.68;87.25;98601.60;4323851;80;21723;-85
2022/08/27 00:35:41;;;;;;;12.80;7.92;;;;;;;15.89;87.88;98610.15;4309465;79;21041;-85
2022/08/27 00:41:43;;;;;;;17.62;7.62;;;;;;;15.83;87.02;98604.93;4374332;79;21046;-85
2022/08/27 00:47:55;;;;;;;13.13;7.00;;;;;;;15.86;87.64;98600.73;4481003;77;21871;-85
2022/08/27 00:54:01;;;;;;;15.60;7.72;;;;;;;15.73;87.38;98605.86;4398978;78;21625;-85
2022/08/27 01:00:09;;;;;;;10.78;7.62;;;;;;;15.56;87.49;98599.44;4334034;80;21874;-85
2022/08/27 01:06:33;;;;;;;18.35;9.60;;;;;;;15.41;88.03;98602.23;4337884;80;21012;-84
2022/08/27 01:12:38;;;;;;;14.07;8.48;;;;;;;15.42;89.09;98608.71;4340168;80;21038;-85
2022/08/27 01:18:39;;;;;;;18.55;9.60;;;;;;;15.29;88.71;98595.85;4357295;79;21078;-85
2022/08/27 01:24:56;;;;;;;16.37;8.28;;;;;;;15.18;89.03;98597.97;4346236;80;21034;-84
2022/08/27 01:30:57;;;;;;;16.87;9.10;;;;;;;15.15;90.02;98602.35;4344334;80;20940;-85
2022/08/27 01:36:59;;;;;;;17.12;8.68;;;;;;;15.24;89.67;98599.06;4338086;80;21119;-84
2022/08/27 01:43:03;;;;;;;12.50;7.95;;;;;;;15.16;89.73;98593.49;4346702;80;21586;-85
2022/08/27 01:49:08;;;;;;;15.38;8.73;;;;;;;15.11;90.31;98591.95;4340799;80;20949;-84
2022/08/27 01:55:19;;;;;;;13.98;8.53;;;;;;;15.04;90.17;98589.30;4292476;80;21040;-84
2022/08/27 02:01:20;;;;;;;17.30;8.63;;;;;;;14.90;90.69;98592.25;4348957;79;20963;-84
2022/08/27 02:07:25;;;;;;;15.75;8.85;;;;;;;15.04;91.38;98593.44;4329984;79;21672;-85
2022/08/27 02:20:58;;;;;;;14.18;8.13;;;;;;;14.89;91.05;98587.14;4348364;79;21554;-84
2022/08/27 02:27:01;;;;;;;16.42;8.60;;;;;;;14.71;91.25;98592.87;4419255;79;21007;-84
2022/08/27 02:33:18;;;;;;;14.93;9.63;;;;;;;14.58;91.22;98595.20;4427070;79;20979;-84
2022/08/27 02:46:11;;;;;;;10.95;7.53;;;;;;;14.33;92.74;98585.80;4380626;79;21483;-85
2022/08/27 02:52:34;;;;;;;15.03;8.30;;;;;;;14.50;92.83;98584.07;4502546;76;20959;-84
2022/08/27 02:58:48;;;;;;;16.07;9.03;;;;;;;14.41;93.05;98580.41;4501070;76;21455;-84
2022/08/27 03:12:10;;;;;;;15.97;8.33;;;;;;;14.25;93.61;98575.30;4522383;76;21057;-83
2022/08/27 03:18:37;;;;;;;16.00;8.45;;;;;;;14.25;93.61;98575.30;4503678;76;23514;-84
2022/08/27 03:25:03;;;;;;;15.03;7.95;;;;;;;14.16;93.34;98571.59;4307988;81;21908;-84
2022/08/27 03:37:35;;;;;;;14.18;8.10;;;;;;;14.07;94.94;98581.72;4297443;81;21166;-84
2022/08/27 03:43:36;;;;;;;14.13;8.58;;;;;;;14.28;94.86;98579.98;4303057;82;21551;-84
2022/08/27 03:49:38;;;;;;;11.18;7.55;;;;;;;14.09;94.48;98569.69;4300546;80;21027;-84
2022/08/27 03:55:42;;;;;;;14.35;8.23;;;;;;;14.06;95.75;98584.27;4310072;81;21654;-84
2022/08/27 04:01:44;;;;;;;13.35;8.35;;;;;;;14.06;95.00;98571.89;4443400;77;21519;-83
2022/08/27 04:07:46;;;;;;;17.07;8.13;;;;;;;13.96;95.24;98574.75;4478933;77;20984;-83
2022/08/27 04:13:48;;;;;;;12.28;9.15;;;;;;;14.20;96.31;98572.36;4480614;77;20935;-83
2022/08/27 04:19:52;;;;;;;15.00;7.53;;;;;;;14.12;95.59;98568.91;4512727;76;21610;-83
2022/08/27 04:25:53;;;;;;;12.88;8.20;;;;;;;14.19;96.70;98577.08;4515631;76;22181;-83
2022/08/27 04:31:55;;;;;;;13.72;7.22;;;;;;;14.20;95.87;98577.25;4371029;79;21055;-83
2022/08/27 04:37:57;;;;;;;13.43;7.65;;;;;;;14.15;96.35;98574.97;4520650;76;20973;-82
2022/08/27 04:44:09;;;;;;;11.90;7.30;;;;;;;14.15;96.90;98577.72;4539197;76;20948;-83
2022/08/27 04:50:11;;;;;;;12.13;7.30;;;;;;;14.32;97.65;98569.11;4527481;76;21021;-83
2022/08/27 04:56:21;;;;;;;12.13;7.58;;;;;;;14.56;97.92;98574.95;4519412;76;20980;-82
2022/08/27 05:02:29;;;;;;;14.98;8.38;;;;;;;14.63;97.46;98576.23;4508275;76;20976;-83
2022/08/27 05:15:18;;;;;;;;;;;;;;;14.91;98.21;98576.50;4509802;76;20954;-82
2022/08/27 05:21:39;;;;;;;10.25;7.80;;;;;;;15.12;98.54;98582.50;4461356;77;20113;-82
2022/08/27 05:27:40;;;;;;;14.07;7.80;;;;;;;15.24;97.84;98580.55;4456496;78;21703;-83
2022/08/27 05:33:43;;;;;;;13.30;7.33;;;;;;;15.37;97.94;98577.42;4453648;78;21053;-83
2022/08/27 05:39:45;;;;;;;13.30;8.05;;;;;;;15.57;97.73;98572.81;4445332;77;21000;-83
2022/08/27 05:45:48;;;;;;;15.50;8.98;;;;;;;15.71;97.83;98570.41;4431889;77;20966;-83
2022/08/27 05:51:49;;;;;;;13.60;8.70;;;;;;;15.89;97.83;98569.54;4460129;77;21042;-83
2022/08/27 05:57:51;;;;;;;17.42;9.55;;;;;;;16.10;97.86;98569.16;4456582;77;21097;-83
2022/08/27 06:03:53;;;;;;;15.72;9.95;;;;;;;16.30;97.96;98571.34;4406095;77;20959;-83
2022/08/27 06:09:59;;;;;;;16.27;9.53;;;;;;;16.51;98.21;98575.14;4447549;77;21037;-83
2022/08/27 06:23:04;;;;;;;12.18;8.83;;;;;;;16.98;97.62;98600.05;4327480;79;21045;-84
2022/08/27 06:29:09;;;;;;;11.38;8.38;;;;;;;17.30;97.47;98605.50;4461303;77;21001;-84
2022/08/27 06:35:11;;;;;;;11.45;7.45;;;;;;;17.74;97.25;98592.46;4465303;77;20974;-83
2022/08/27 06:41:22;;;;;;;16.35;8.15;;;;;;;18.06;96.46;98584.13;4475648;77;22043;-83
2022/08/27 06:47:41;;;;;;;14.23;8.35;;;;;;;18.35;96.10;98598.83;4461941;77;21058;-84
2022/08/27 06:53:47;;;;;;;12.88;7.95;;;;;;;18.58;95.63;98605.55;4469790;77;20994;-84
2022/08/27 06:59:54;;;;;;;13.18;8.33;;;;;;;18.81;94.94;98604.55;4452494;77;20975;-85
2022/08/27 07:06:06;;;;;;;13.00;8.93;;;;;;;19.05;94.52;98606.60;4456996;77;21033;-84
2022/08/27 07:12:24;;;;;;;13.58;9.43;;;;;;;19.29;93.99;98608.52;4466500;77;21006;-85
2022/08/27 07:18:25;;;;;;;18.45;10.35;;;;;;;19.53;93.67;98606.36;4470294;79;21017;-85
2022/08/27 07:24:58;;;;;;;19.17;11.03;;;;;;;19.79;93.03;98605.76;4436201;77;20988;-85
2022/08/27 07:31:01;;;;;;;19.98;11.38;;;;;;;20.02;92.76;98613.73;4468557;78;21024;-85
2022/08/27 07:37:03;;;;;;;20.02;12.73;;;;;;;20.30;92.10;98616.98;4453812;78;20986;-83
2022/08/27 07:49:38;;;;;;;17.80;8.60;;;;;;;20.79;90.50;98625.60;4457235;78;21026;-85
2022/08/27 07:55:39;;;;;;;11.60;8.38;;;;;;;21.18;89.37;98627.77;4459263;78;21039;-85
2022/08/27 08:01:41;;;;;;;19.40;8.13;;;;;;;21.56;88.09;98636.66;4458024;78;21097;-84
2022/08/27 08:07:43;;;;;;;15.63;8.58;;;;;;;21.99;86.66;98643.52;4465171;78;21455;-86
2022/08/27 08:13:46;;;;;;;9.70;6.95;;;;;;;22.51;85.90;98652.32;4457697;78;21008;-87
2022/08/27 08:19:48;;;;;;;11.43;6.75;;;;;;;22.88;85.14;98658.89;4462537;78;21206;-85
2022/08/27 08:25:56;;;;;;;16.57;6.08;;;;;;;23.23;84.34;98666.31;4471547;76;21027;-86
2022/08/27 08:31:57;;;;;;;8.43;6.33;;;;;;;23.51;82.65;98662.27;4500518;77;21035;-86
2022/08/27 08:38:00;;;;;;;9.18;6.45;;;;;;;23.83;82.06;98664.97;4482665;76;20991;-86
2022/08/27 08:44:25;;;;;;;9.35;5.62;;;;;;;24.03;80.85;98657.61;4490479;76;21418;-86
2022/08/27 08:50:56;;;;;;;9.03;6.10;;;;;;;24.34;80.29;98653.88;4493247;76;22299;-85
2022/08/27 08:57:15;;;;;;;9.10;5.80;;;;;;;24.61;79.21;98655.72;4333752;79;21044;-85
2022/08/27 09:03:16;;;;;;;10.10;5.42;;;;;;;24.84;77.35;98663.99;4342861;80;21039;-87
2022/08/27 09:09:51;;;;;;;11.68;5.80;;;;;;;25.27;75.63;98659.09;4499900;76;20998;-86
2022/08/27 09:15:57;;;;;;;8.18;5.37;;;;;;;25.51;74.71;98660.58;4488711;76;21471;-85
2022/08/27 09:22:19;;;;;;;8.07;5.00;;;;;;;25.96;73.23;98657.27;4468189;76;21059;-86
2022/08/27 09:34:46;;;;;;;8.43;5.37;;;;;;;27.31;70.78;98665.73;4464657;77;20969;-88
2022/08/27 09:40:51;;;;;;;7.45;5.00;;;;;;;28.28;69.80;98652.92;4341427;79;21003;-87
2022/08/27 09:47:01;;;;;;;8.50;4.72;;;;;;;29.35;67.92;98655.72;4360257;79;21517;-86
2022/08/27 09:53:03;;;;;;;9.78;5.62;;;;;;;30.17;66.50;98654.98;4360119;79;21032;-88
2022/08/27 09:59:13;;;;;;;12.75;5.90;;;;;;;30.91;65.21;98636.71;4432929;77;21063;-87
2022/08/27 10:05:23;;;;;;;7.05;4.87;;;;;;;31.78;63.56;98643.88;4447908;78;21050;-87
2022/08/27 10:11:42;;;;;;;11.20;5.08;;;;;;;32.18;60.63;98645.75;4392963;78;21913;-88
2022/08/27 10:18:01;;;;;;;8.50;5.62;;;;;;;32.65;58.80;98644.23;4336224;79;21554;-88
2022/08/27 10:24:27;;;;;;;14.53;6.00;;;;;;;33.13;56.99;98642.09;4358189;78;20977;-87
2022/08/27 10:31:10;;;;;;;8.20;5.00;;;;;;;33.59;56.39;98647.26;4481930;77;20955;-87
2022/08/27 10:37:47;;;;;;;9.38;4.60;;;;;;;33.65;54.33;98642.26;4482307;77;21974;-88
2022/08/27 10:44:27;;;;;;;7.83;4.55;;;;;;;33.90;52.59;98637.36;4472022;77;21117;-86
2022/08/27 10:50:43;;;;;;;8.50;5.20;;;;;;;34.26;50.78;98629.22;4420917;78;21009;-87
2022/08/27 10:57:14;;;;;;;12.03;5.28;;;;;;;34.46;50.13;98632.22;4526296;76;20986;-88
2022/08/27 11:03:46;;;;;;;8.43;5.67;;;;;;;34.54;49.66;98628.06;4518793;76;20948;-88
2022/08/27 11:09:58;;;;;;;10.20;5.05;;;;;;;34.23;49.63;98628.25;4474748;77;21050;-89
2022/08/27 11:16:07;;;;;;;8.50;5.15;;;;;;;34.39;49.21;98627.85;4478549;77;20986;-87
2022/08/27 11:22:21;;;;;;;7.97;4.85;;;;;;;34.33;48.58;98635.69;4474366;77;21077;-88
2022/08/27 11:28:40;;;;;;;9.73;4.65;;;;;;;34.13;47.85;98635.65;4466914;77;21000;-88
2022/08/27 11:34:59;;;;;;;10.88;5.25;;;;;;;33.89;47.49;98627.94;4471636;77;21046;-88
2022/08/27 11:41:33;;;;;;;8.88;5.30;;;;;;;33.64;47.64;98626.55;4461597;77;20955;-87
2022/08/27 11:47:35;;;;;;;9.18;5.00;;;;;;;32.89;47.32;98616.64;4468217;77;20973;-87
2022/08/27 11:53:44;;;;;;;9.40;4.92;;;;;;;32.10;47.22;98613.01;4473596;77;21025;-87
2022/08/27 11:59:45;;;;;;;10.65;4.97;;;;;;;31.58;48.06;98610.99;4466797;77;21610;-86
2022/08/27 12:05:55;;;;;;;7.92;4.50;;;;;;;31.10;47.39;98607.33;4315099;79;21030;-86
2022/08/27 12:12:08;;;;;;;9.98;5.05;;;;;;;30.43;46.76;98596.94;4346363;79;21012;-86
2022/08/27 12:18:42;;;;;;;10.48;5.90;;;;;;;30.27;47.07;98593.52;4336308;79;21511;-86
2022/08/27 12:24:54;;;;;;;9.75;6.00;;;;;;;30.03;47.56;98590.48;4309897;80;20992;-87
2022/08/27 12:30:57;;;;;;;12.75;5.55;;;;;;;29.71;48.73;98580.01;4311480;81;21829;-87
2022/08/27 12:37:01;;;;;;;9.65;5.72;;;;;;;29.72;48.73;98578.72;4327804;79;21076;-86
2022/08/27 12:43:23;;;;;;;10.53;5.60;;;;;;;29.54;49.27;98576.41;4479395;77;20983;-86
2022/08/27 12:49:30;;;;;;;7.83;4.97;;;;;;;29.26;49.09;98568.55;4477201;77;21640;-86
2022/08/27 12:56:01;;;;;;;9.15;5.60;;;;;;;29.13;49.16;98566.88;4479809;77;21025;-86
2022/08/27 13:02:17;;;;;;;11.85;5.97;;;;;;;28.95;49.95;98564.65;4468181;77;21049;-86
2022/08/27 13:08:30;;;;;;;7.90;5.22;;;;;;;28.94;50.62;98557.45;4475679;77;21053;-86
2022/08/27 13:14:38;;;;;;;12.85;6.08;;;;;;;28.79;50.87;98555.52;4472424;77;21006;-86
2022/08/27 13:20:40;;;;;;;8.58;6.08;;;;;;;28.62;51.37;98549.69;4471005;77;20987;-86
2022/08/27 13:26:47;;;;;;;12.82;5.95;;;;;;;28.56;52.45;98551.72;4451385;78;20954;-87
2022/08/27 13:32:50;;;;;;;11.85;5.83;;;;;;;28.42;52.36;98547.03;4304824;81;21012;-87
2022/08/27 13:38:52;;;;;;;12.13;5.50;;;;;;;28.40;52.93;98545.36;4304840;81;20980;-86
2022/08/27 13:45:02;;;;;;;13.95;6.20;;;;;;;28.26;52.99;98534.44;4454202;78;22091;-86
2022/08/27 13:51:05;;;;;;;9.53;5.50;;;;;;;28.16;53.19;98531.69;4306074;81;21576;-85
2022/08/27 13:57:12;;;;;;;9.35;6.15;;;;;;;28.06;53.60;98527.56;4458816;77;21055;-85
2022/08/27 14:03:35;;;;;;;10.28;5.60;;;;;;;27.80;54.22;98530.33;4275974;80;21060;-87
2022/08/27 14:09:57;;;;;;;7.35;5.50;;;;;;;27.45;55.31;98539.77;4456441;78;20991;-86
2022/08/27 14:15:59;;;;;;;10.80;5.85;;;;;;;27.26;55.89;98529.41;4458278;78;21541;-87
2022/08/27 14:22:00;;;;;;;9.10;5.95;;;;;;;27.20;55.98;98533.53;4468585;77;21041;-88
2022/08/27 14:28:02;;;;;;;10.70;5.62;;;;;;;27.23;56.05;98538.18;4466092;77;21558;-88
2022/08/27 14:34:05;;;;;;;11.88;6.42;;;;;;;27.32;55.69;98540.05;4444098;76;20984;-87
2022/08/27 14:40:08;;;;;;;8.70;5.97;;;;;;;27.47;55.72;98540.67;4443710;76;21017;-87
2022/08/27 14:46:18;;;;;;;17.17;5.92;;;;;;;27.54;54.37;98542.42;4442842;76;21038;-87
2022/08/27 14:52:20;;;;;;;10.72;6.47;;;;;;;27.61;54.47;98537.73;4452985;77;21026;-87
2022/08/27 14:58:21;;;;;;;9.13;6.08;;;;;;;27.64;54.09;98547.22;4466109;77;20961;-88
2022/08/27 15:04:24;;;;;;;14.28;6.20;;;;;;;27.59;54.07;98550.76;4456193;76;21059;-87
2022/08/27 15:10:26;;;;;;;9.48;6.47;;;;;;;27.37;54.13;98560.41;4469027;76;20990;-87
2022/08/27 15:16:37;;;;;;;10.90;6.30;;;;;;;27.25;54.31;98565.78;4433089;77;21004;-87
2022/08/27 15:22:41;;;;;;;11.20;6.28;;;;;;;27.00;55.15;98565.16;4461679;77;21919;-88
2022/08/27 15:28:43;;;;;;;15.18;6.95;;;;;;;26.67;56.10;98564.14;4493047;76;20992;-87
2022/08/27 15:34:44;;;;;;;14.38;7.85;;;;;;;26.52;57.42;98571.86;4463618;77;21759;-84
2022/08/27 15:40:46;;;;;;;13.80;8.70;;;;;;;26.39;58.50;98565.82;4455631;77;21027;-88
2022/08/27 15:46:49;;;;;;;12.82;7.83;;;;;;;26.26;59.57;98565.42;4480087;77;21030;-87
2022/08/27 15:52:56;;;;;;;12.43;7.78;;;;;;;26.13;60.71;98565.77;4467289;77;21003;-88
2022/08/27 15:58:58;;;;;;;12.93;7.78;;;;;;;26.08;61.72;98562.86;4447848;77;21027;-88
2022/08/27 16:04:59;;;;;;;12.15;8.28;;;;;;;25.98;62.60;98568.45;4445734;77;21058;-87
2022/08/27 16:11:01;;;;;;;13.48;7.78;;;;;;;25.91;63.59;98573.05;4477193;77;20956;-87
2022/08/27 16:17:03;;;;;;;15.38;7.60;;;;;;;25.82;64.19;98575.98;4456650;77;21031;-87
2022/08/27 16:23:04;;;;;;;10.68;8.25;;;;;;;25.74;64.50;98572.81;4437618;77;21605;-87
2022/08/27 16:29:06;;;;;;;10.05;7.47;;;;;;;25.65;65.48;98575.70;4486104;77;20992;-87
2022/08/27 16:35:08;;;;;;;14.73;6.92;;;;;;;25.19;65.84;98555.06;4497803;76;21564;-87
2022/08/27 16:41:10;;;;;;;13.00;7.53;;;;;;;25.19;65.84;98555.06;4492024;76;21066;-87
2022/08/27 16:47:12;;;;;;;13.62;8.23;;;;;;;25.16;66.78;98586.06;4345950;79;21689;-88
2022/08/27 16:53:17;;;;;;;11.48;7.55;;;;;;;25.01;66.96;98588.84;4491590;77;22123;-87
2022/08/27 16:59:18;;;;;;;13.48;8.43;;;;;;;24.93;67.46;98589.10;4497193;77;21011;-87
2022/08/27 17:05:21;;;;;;;12.20;8.10;;;;;;;24.78;67.88;98590.30;4335097;80;21551;-86
2022/08/27 17:11:26;;;;;;;12.18;8.13;;;;;;;24.70;68.58;98603.15;4494495;76;21502;-86
2022/08/27 17:17:28;;;;;;;17.43;9.80;;;;;;;24.59;69.38;98605.05;4489153;76;20996;-87
2022/08/27 17:23:35;;;;;;;16.57;10.25;;;;;;;24.49;70.24;98614.77;4489787;76;21868;-86
2022/08/27 17:29:36;;;;;;;;;;;;;;;24.37;71.17;98617.17;4459032;77;20937;-87
2022/08/27 17:35:38;;;;;;;21.42;10.53;;;;;;;24.21;73.03;98623.95;4447372;77;20170;-87
2022/08/27 17:41:43;;;;;;;21.80;11.95;;;;;;;24.05;73.01;98629.18;4436096;77;20999;-86
2022/08/27 17:47:45;;;;;;;20.50;11.20;;;;;;;23.93;73.89;98629.50;4193065;80;10000331;-86
2022/08/27 17:53:50;;;;;;;22.07;11.85;;;;;;;23.85;74.57;98627.55;4468294;77;21022;-87
2022/08/27 17:59:52;;;;;;;19.12;12.28;;;;;;;23.58;75.43;98612.27;4446022;77;21018;-86
2022/08/27 18:05:54;;;;;;;21.05;12.90;;;;;;;23.38;76.49;98611.41;4444074;76;21038;-86
2022/08/27 18:11:57;;;;;;;23.85;13.18;;;;;;;23.26;77.77;98619.98;4448149;78;21050;-87
2022/08/27 18:18:00;;;;;;;22.50;13.03;;;;;;;23.20;78.55;98633.14;4444064;77;21882;-87
2022/08/27 18:24:02;;;;;;;23.38;13.65;;;;;;;23.12;79.21;98633.30;4439214;77;20988;-86
2022/08/27 18:30:06;;;;;;;19.20;13.93;;;;;;;22.99;79.97;98634.08;4374302;79;20971;-86
2022/08/27 18:36:08;;;;;;;19.75;14.13;;;;;;;22.99;80.60;98645.89;4369177;79;20984;-87
2022/08/27 18:42:11;;;;;;;26.55;14.73;;;;;;;22.86;80.73;98663.40;4477203;77;21959;-87
2022/08/27 18:48:16;;;;;;;24.12;16.55;;;;;;;22.56;81.69;98686.61;4472369;77;21492;-87
2022/08/27 18:54:20;;;;;;;28.50;17.65;;;;;;;22.54;82.99;98687.69;4460562;77;21025;-86
2022/08/27 19:00:22;;;;;;;25.57;18.12;;;;;;;22.54;83.48;98700.23;4453935;76;20977;-83
2022/08/27 19:06:24;;;;;;;31.70;20.68;;;;;;;22.57;84.67;98720.23;4467612;77;21000;-82
2022/08/27 19:12:25;;;;;;;27.87;20.72;;;;;;;22.42;84.90;98710.88;4457192;76;22298;-82
2022/08/27 19:18:29;;;;;;;27.73;19.05;;;;;;;22.15;86.04;98712.17;4470679;77;21855;-83
2022/08/27 19:24:30;;;;;;;31.00;18.65;;;;;;;21.90;87.41;98713.77;4453409;76;21475;-83
2022/08/27 19:30:31;;;;;;;27.48;17.98;;;;;;;21.71;87.92;98715.05;4298429;80;20980;-83
2022/08/27 19:36:36;;;;;;;28.12;18.90;;;;;;;21.63;89.17;98719.94;4330183;79;21022;-82
2022/08/27 19:42:37;;;;;;;24.45;16.40;;;;;;;21.55;89.14;98725.61;4318278;79;20960;-82
2022/08/27 19:48:39;;;;;;;23.47;17.57;;;;;;;21.31;90.02;98719.72;4316437;79;21982;-82
2022/08/27 19:54:40;;;;;;;21.60;17.45;;;;;;;21.20;90.45;98715.17;4321444;79;21013;-82
2022/08/27 20:00:43;;;;;;;24.07;16.70;;;;;;;21.12;91.21;98727.00;4458011;77;21003;-83
2022/08/27 20:06:45;;;;;;;21.80;16.85;;;;;;;20.95;92.23;98740.30;4315311;80;20982;-83
2022/08/27 20:12:46;;;;;;;23.70;16.80;;;;;;;21.00;92.87;98737.58;4346729;79;21000;-82
2022/08/27 20:18:47;;;;;;;16.10;9.08;;;;;;;20.95;93.77;98734.73;4474741;77;21022;-82
2022/08/27 20:24:49;;;;;;;11.15;8.50;;;;;;;20.80;92.35;98739.20;4502288;76;21003;-82
2022/08/27 20:30:50;;;;;;;12.60;8.08;;;;;;;20.52;91.91;98742.94;4509811;76;21014;-82
2022/08/27 20:36:52;;;;;;;13.35;8.73;;;;;;;20.31;92.59;98754.75;4528453;76;21935;-82
2022/08/27 20:42:55;;;;;;;13.78;7.70;;;;;;;20.15;93.01;98776.46;4500428;76;20944;-82
2022/08/27 20:48:56;;;;;;;10.98;7.05;;;;;;;20.16;93.70;98768.91;4521018;76;20984;-82
2022/08/27 20:54:58;;;;;;;16.05;7.50;;;;;;;19.94;93.42;98745.14;4518337;76;21019;-83
2022/08/27 21:01:00;;;;;;;12.40;6.53;;;;;;;19.81;93.51;98722.75;4519378;76;20977;-85
2022/08/27 21:07:01;;;;;;;12.05;6.40;;;;;;;19.61;93.60;98691.00;4512902;76;21876;-85
2022/08/27 21:13:03;;;;;;;20.12;10.10;;;;;;;19.37;94.15;98662.59;4538653;76;20965;-85
2022/08/27 21:19:05;;;;;;;11.55;6.20;;;;;;;19.20;94.41;98651.37;4531050;76;20953;-85
2022/08/27 21:25:12;;;;;;;12.28;7.30;;;;;;;19.07;94.65;98638.85;4474121;76;21035;-84
2022/08/27 21:31:14;;;;;;;7.53;5.22;;;;;;;18.99;94.97;98640.87;4452648;77;20980;-83
2022/08/27 21:37:16;;;;;;;7.85;5.12;;;;;;;18.87;95.94;98640.98;4435501;76;21007;-83
2022/08/27 21:43:17;;;;;;;7.67;5.78;;;;;;;18.69;97.36;98641.48;4470692;76;21067;-84
2022/08/27 21:49:19;;;;;;;7.45;4.72;;;;;;;18.63;96.74;98642.45;4466245;76;20997;-83
2022/08/27 21:55:21;;;;;;;9.28;5.28;;;;;;;18.65;96.60;98632.47;4464199;77;21023;-83
2022/08/27 22:01:22;;;;;;;7.62;5.35;;;;;;;18.61;97.06;98651.80;4453051;76;21084;-83
2022/08/27 22:07:24;;;;;;;8.03;5.25;;;;;;;18.45;97.47;98643.52;4457943;77;21071;-83
2022/08/27 22:13:25;;;;;;;7.30;5.40;;;;;;;18.35;98.51;98637.63;4464634;76;20956;-83
2022/08/27 22:19:27;;;;;;;8.70;5.53;;;;;;;18.45;99.35;98638.75;4462888;76;21019;-82
2022/08/27 22:25:28;;;;;;;11.30;5.72;;;;;;;18.56;99.49;98644.02;4480395;77;20992;-82
2022/08/27 22:31:31;;;;;;;8.55;5.45;;;;;;;18.59;99.67;98637.59;4474786;77;21480;-83
2022/08/27 22:37:32;;;;;;;7.22;5.78;;;;;;;18.67;100.00;98636.98;4494697;77;20970;-84
2022/08/27 22:43:35;;;;;;;11.35;5.58;;;;;;;18.76;100.00;98634.98;4502416;76;20987;-83
2022/08/27 22:49:36;;;;;;;10.03;5.67;;;;;;;18.68;99.63;98639.16;4505680;76;20987;-84
2022/08/27 22:55:37;;;;;;;9.65;5.97;;;;;;;18.53;100.00;98640.13;4485724;76;21016;-83
2022/08/27 23:01:39;;;;;;;8.18;5.60;;;;;;;18.57;100.00;98642.81;4494736;76;21497;-83
2022/08/27 23:07:41;;;;;;;9.38;7.10;;;;;;;18.66;100.00;98640.98;4498510;76;21035;-84
2022/08/27 23:13:43;;;;;;;10.05;6.30;;;;;;;18.65;100.00;98642.17;4492911;76;21022;-83
2022/08/27 23:19:45;;;;;;;12.07;7.80;;;;;;;18.66;100.00;98644.35;4460781;77;21064;-82
2022/08/27 23:32:06;;;;;;;11.63;8.03;;;;;;;18.54;100.00;98662.47;4341655;80;20948;-82
2022/08/27 23:38:08;;;;;;;15.38;9.60;;;;;;;18.53;100.00;98658.14;4487502;77;22128;-83
2022/08/27 23:44:10;;;;;;;14.13;9.25;;;;;;;18.56;100.00;98655.09;4463314;77;21031;-83
2022/08/27 23:50:13;;;;;;;14.15;9.63;;;;;;;18.54;100.00;98648.61;4487182;77;21024;-83
2022/08/27 23:56:14;;;;;;;12.10;8.88;;;;;;;18.52;100.00;98653.83;4453604;77;21558;-83
